createdAt,value
2023-03-19T00:00:53.231Z,9.80
2023-03-19T00:01:55.073Z,7.70
2023-03-19T00:02:56.795Z,7.03
2023-03-19T00:03:58.491Z,9.27
2023-03-19T00:05:00.251Z,6.80
2023-03-19T00:06:02.332Z,8.40
2023-03-19T00:07:03.830Z,10.50
2023-03-19T00:08:05.771Z,7.93
2023-03-19T00:09:07.367Z,7.87
2023-03-19T00:10:09.431Z,8.57
2023-03-19T00:11:13.392Z,8.90
2023-03-19T00:12:15.056Z,6.80
2023-03-19T00:13:17.014Z,7.73
2023-03-19T00:14:18.652Z,7.90
2023-03-19T00:15:20.387Z,9.73
2023-03-19T00:16:21.978Z,9.13
2023-03-19T00:17:23.591Z,7.80
2023-03-19T00:18:25.210Z,9.40
2023-03-19T00:19:27.373Z,12.00
2023-03-19T00:20:28.967Z,13.27
2023-03-19T00:21:31.248Z,14.30
2023-03-19T00:22:32.751Z,14.10
2023-03-19T00:23:35.351Z,18.20
2023-03-19T00:24:36.935Z,15.70
2023-03-19T00:25:38.453Z,15.13
2023-03-19T00:26:40.263Z,15.57
2023-03-19T00:27:42.257Z,12.97
2023-03-19T00:28:43.925Z,14.27
2023-03-19T00:29:45.476Z,12.67
2023-03-19T00:30:47.043Z,13.40
2023-03-19T00:31:49.154Z,13.20
2023-03-19T00:32:50.749Z,14.40
2023-03-19T00:33:52.369Z,11.47
2023-03-19T00:34:53.946Z,13.13
2023-03-19T00:35:55.636Z,13.60
2023-03-19T00:36:57.196Z,13.63
2023-03-19T00:37:58.814Z,13.03
2023-03-19T00:39:00.880Z,12.33
2023-03-19T00:40:02.502Z,14.93
2023-03-19T00:41:05.821Z,12.00
2023-03-19T00:42:07.671Z,11.80
2023-03-19T00:43:09.240Z,13.53
2023-03-19T00:44:10.785Z,12.87
2023-03-19T00:45:13.219Z,13.53
2023-03-19T00:46:14.786Z,14.20
2023-03-19T00:47:16.372Z,13.77
2023-03-19T00:48:17.892Z,12.80
2023-03-19T00:49:19.475Z,12.93
2023-03-19T00:50:21.034Z,12.87
2023-03-19T00:51:24.054Z,12.97
2023-03-19T00:52:25.790Z,11.33
2023-03-19T00:53:27.362Z,13.57
2023-03-19T00:54:28.991Z,15.03
2023-03-19T00:55:30.577Z,13.13
2023-03-19T00:56:32.210Z,12.20
2023-03-19T00:57:33.725Z,13.57
2023-03-19T00:58:35.648Z,16.23
2023-03-19T00:59:37.184Z,13.77
2023-03-19T01:00:39.173Z,13.07
2023-03-19T01:01:40.785Z,12.93
2023-03-19T01:02:42.347Z,12.93
2023-03-19T01:03:45.409Z,14.03
2023-03-19T01:04:49.902Z,12.87
2023-03-19T01:05:51.760Z,12.87
2023-03-19T01:06:53.355Z,11.90
2023-03-19T01:07:54.952Z,12.27
2023-03-19T01:08:56.664Z,10.53
2023-03-19T01:09:58.176Z,9.17
2023-03-19T01:11:11.896Z,9.20
2023-03-19T01:12:13.605Z,9.07
2023-03-19T01:13:15.333Z,10.30
2023-03-19T01:14:17.922Z,6.63
2023-03-19T01:15:19.629Z,8.03
2023-03-19T01:16:21.242Z,10.57
2023-03-19T01:17:22.988Z,7.20
2023-03-19T01:18:24.574Z,7.93
2023-03-19T01:19:26.536Z,6.00
2023-03-19T01:20:28.171Z,6.93
2023-03-19T01:21:31.200Z,7.00
2023-03-19T01:22:36.234Z,7.00
2023-03-19T01:23:37.849Z,7.77
2023-03-19T01:24:39.382Z,8.30
2023-03-19T01:25:40.958Z,8.53
2023-03-19T01:26:43.706Z,11.30
2023-03-19T01:27:45.342Z,9.03
2023-03-19T01:28:47.288Z,8.33
2023-03-19T01:29:48.842Z,10.27
2023-03-19T01:30:51.038Z,9.80
2023-03-19T01:31:52.700Z,10.40
2023-03-19T01:32:54.607Z,11.17
2023-03-19T01:33:56.311Z,10.80
2023-03-19T01:34:57.861Z,9.13
2023-03-19T01:36:03.217Z,11.73
2023-03-19T01:37:04.839Z,11.50
2023-03-19T01:38:06.457Z,11.63
2023-03-19T01:39:08.112Z,11.80
2023-03-19T01:40:13.261Z,10.47
2023-03-19T01:41:15.009Z,10.07
2023-03-19T01:42:17.007Z,9.37
2023-03-19T01:43:24.207Z,10.13
2023-03-19T01:44:35.244Z,11.47
2023-03-19T01:45:39.077Z,11.47
2023-03-19T01:46:41.243Z,11.00
2023-03-19T01:47:44.389Z,10.03
2023-03-19T01:48:53.354Z,10.43
2023-03-19T01:49:56.449Z,9.77
2023-03-19T01:50:59.456Z,10.17
2023-03-19T01:52:04.110Z,9.20
2023-03-19T01:53:06.760Z,11.07
2023-03-19T01:54:13.529Z,8.57
2023-03-19T01:55:15.289Z,9.50
2023-03-19T01:56:27.703Z,9.80
2023-03-19T01:57:31.226Z,9.57
2023-03-19T01:58:33.034Z,12.83
2023-03-19T01:59:45.221Z,9.23
2023-03-19T02:00:47.248Z,9.17
2023-03-19T02:02:15.098Z,10.53
2023-03-19T02:03:17.604Z,9.87
2023-03-19T02:04:19.758Z,7.83
2023-03-19T02:05:25.913Z,9.87
2023-03-19T02:06:30.250Z,8.77
2023-03-19T02:07:34.572Z,8.97
2023-03-19T02:08:36.859Z,10.23
2023-03-19T02:09:40.260Z,8.33
2023-03-19T02:10:44.562Z,8.20
2023-03-19T02:11:46.606Z,8.97
2023-03-19T02:12:49.050Z,10.80
2023-03-19T02:13:50.731Z,7.83
2023-03-19T02:14:52.793Z,9.50
2023-03-19T02:15:55.083Z,9.73
2023-03-19T02:16:56.983Z,9.23
2023-03-19T02:17:58.619Z,7.97
2023-03-19T02:19:01.406Z,9.87
2023-03-19T02:20:23.910Z,7.00
2023-03-19T02:21:25.760Z,8.20
2023-03-19T02:22:29.992Z,8.63
2023-03-19T02:23:55.549Z,9.83
2023-03-19T02:25:02.686Z,9.10
2023-03-19T02:26:24.811Z,8.77
2023-03-19T02:27:26.602Z,8.30
2023-03-19T02:28:28.902Z,9.40
2023-03-19T02:29:30.577Z,10.07
2023-03-19T02:30:34.546Z,9.80
2023-03-19T02:31:37.178Z,8.80
2023-03-19T02:32:38.767Z,8.47
2023-03-19T02:33:40.555Z,7.87
2023-03-19T02:34:43.651Z,8.80
2023-03-19T02:35:48.672Z,9.67
2023-03-19T02:37:02.597Z,11.67
2023-03-19T02:38:05.458Z,10.57
2023-03-19T02:39:21.536Z,12.03
2023-03-19T02:40:27.193Z,13.27
2023-03-19T02:41:31.569Z,10.17
2023-03-19T02:42:33.437Z,12.47
2023-03-19T02:43:38.363Z,12.77
2023-03-19T02:44:40.139Z,10.37
2023-03-19T02:45:41.987Z,9.97
2023-03-19T02:46:43.529Z,10.27
2023-03-19T02:47:45.215Z,14.23
2023-03-19T02:48:46.753Z,9.30
2023-03-19T02:49:48.299Z,12.70
2023-03-19T02:50:50.225Z,13.40
2023-03-19T02:51:51.859Z,11.63
2023-03-19T02:52:54.086Z,12.73
2023-03-19T02:53:55.721Z,11.50
2023-03-19T02:54:57.240Z,11.83
2023-03-19T02:55:58.796Z,12.40
2023-03-19T02:57:01.083Z,13.33
2023-03-19T02:58:02.675Z,11.57
2023-03-19T02:59:04.482Z,12.40
2023-03-19T03:00:07.755Z,12.97
2023-03-19T03:01:09.342Z,12.50
2023-03-19T03:02:11.206Z,13.20
2023-03-19T03:03:13.192Z,12.83
2023-03-19T03:04:16.674Z,13.77
2023-03-19T03:05:18.494Z,13.53
2023-03-19T03:06:20.097Z,12.40
2023-03-19T03:07:22.190Z,12.53
2023-03-19T03:08:23.813Z,12.50
2023-03-19T03:09:25.838Z,15.53
2023-03-19T03:10:27.525Z,11.50
2023-03-19T03:11:29.147Z,12.50
2023-03-19T03:12:31.627Z,13.80
2023-03-19T03:13:33.276Z,13.27
2023-03-19T03:14:35.215Z,14.43
2023-03-19T03:15:36.788Z,11.83
2023-03-19T03:16:38.416Z,12.27
2023-03-19T03:17:40.935Z,13.00
2023-03-19T03:18:42.506Z,12.40
2023-03-19T03:19:44.127Z,13.77
2023-03-19T03:20:45.715Z,10.67
2023-03-19T03:21:47.300Z,9.13
2023-03-19T03:22:49.116Z,11.80
2023-03-19T03:23:51.253Z,12.73
2023-03-19T03:24:52.794Z,10.53
2023-03-19T03:25:54.353Z,11.00
2023-03-19T03:26:56.252Z,7.90
2023-03-19T03:27:57.813Z,9.77
2023-03-19T03:28:59.396Z,7.93
2023-03-19T03:30:01.081Z,9.43
2023-03-19T03:31:02.762Z,9.53
2023-03-19T03:32:04.520Z,10.50
2023-03-19T03:33:07.277Z,9.90
2023-03-19T03:34:08.867Z,10.23
2023-03-19T03:35:11.231Z,9.20
2023-03-19T03:36:13.475Z,10.33
2023-03-19T03:37:15.033Z,10.53
2023-03-19T03:38:16.690Z,12.17
2023-03-19T03:39:19.121Z,12.17
2023-03-19T03:40:21.436Z,10.97
2023-03-19T03:41:23.060Z,11.67
2023-03-19T03:42:24.697Z,11.20
2023-03-19T03:43:26.567Z,10.60
2023-03-19T03:44:28.139Z,11.57
2023-03-19T03:45:29.738Z,11.00
2023-03-19T03:46:31.668Z,12.47
2023-03-19T03:47:33.183Z,10.03
2023-03-19T03:48:35.833Z,10.50
2023-03-19T03:49:37.356Z,10.10
2023-03-19T03:50:38.988Z,10.57
2023-03-19T03:51:41.195Z,9.60
2023-03-19T03:52:42.895Z,10.00
2023-03-19T03:53:44.714Z,10.17
2023-03-19T03:54:46.231Z,9.03
2023-03-19T03:55:47.834Z,9.07
2023-03-19T03:56:50.712Z,10.60
2023-03-19T03:57:52.261Z,9.03
2023-03-19T03:58:53.809Z,8.47
2023-03-19T03:59:55.363Z,9.93
2023-03-19T04:00:56.946Z,9.50
2023-03-19T04:01:58.664Z,9.33
2023-03-19T04:03:00.370Z,9.60
2023-03-19T04:04:02.757Z,9.43
2023-03-19T04:05:04.651Z,10.30
2023-03-19T04:06:06.224Z,10.07
2023-03-19T04:07:08.286Z,8.73
2023-03-19T04:08:10.654Z,8.40
2023-03-19T04:09:12.404Z,11.23
2023-03-19T04:10:15.475Z,10.23
2023-03-19T04:11:17.117Z,8.10
2023-03-19T04:12:18.706Z,8.13
2023-03-19T04:13:20.436Z,12.00
2023-03-19T04:14:22.377Z,9.30
2023-03-19T04:15:24.057Z,9.57
2023-03-19T04:16:25.707Z,9.47
2023-03-19T04:17:27.282Z,9.90
2023-03-19T04:18:28.845Z,11.07
2023-03-19T04:19:31.714Z,10.37
2023-03-19T04:20:33.600Z,9.77
2023-03-19T04:21:35.316Z,11.70
2023-03-19T04:22:36.898Z,10.73
2023-03-19T04:23:38.563Z,12.27
2023-03-19T04:24:40.653Z,9.53
2023-03-19T04:25:42.255Z,11.60
2023-03-19T04:26:43.848Z,10.77
2023-03-19T04:27:46.223Z,12.07
2023-03-19T04:28:47.751Z,10.10
2023-03-19T04:29:49.631Z,10.57
2023-03-19T04:30:51.529Z,9.37
2023-03-19T04:31:53.193Z,10.23
2023-03-19T04:32:54.889Z,12.17
2023-03-19T04:33:56.435Z,9.23
2023-03-19T04:34:58.674Z,10.57
2023-03-19T04:36:00.693Z,13.77
2023-03-19T04:37:02.275Z,12.17
2023-03-19T04:38:04.297Z,12.87
2023-03-19T04:39:06.152Z,11.50
2023-03-19T04:40:08.738Z,13.87
2023-03-19T04:41:10.914Z,11.77
2023-03-19T04:42:12.567Z,13.13
2023-03-19T04:43:14.456Z,11.83
2023-03-19T04:44:17.027Z,10.20
2023-03-19T04:45:18.591Z,11.60
2023-03-19T04:46:20.231Z,12.50
2023-03-19T04:47:22.165Z,11.07
2023-03-19T04:48:23.850Z,12.97
2023-03-19T04:49:26.034Z,13.90
2023-03-19T04:50:27.983Z,12.33
2023-03-19T04:51:29.535Z,13.53
2023-03-19T04:52:31.252Z,11.13
2023-03-19T04:53:33.019Z,12.87
2023-03-19T04:54:34.568Z,11.63
2023-03-19T04:55:36.072Z,12.97
2023-03-19T04:56:37.701Z,13.43
2023-03-19T04:57:39.221Z,14.60
2023-03-19T04:58:40.848Z,15.47
2023-03-19T04:59:42.803Z,15.80
2023-03-19T05:00:46.923Z,16.33
2023-03-19T05:01:48.541Z,17.93
2023-03-19T05:02:50.135Z,15.93
2023-03-19T05:03:51.734Z,19.00
2023-03-19T05:04:53.701Z,15.57
2023-03-19T05:05:55.301Z,16.13
2023-03-19T05:06:57.467Z,16.13
2023-03-19T05:07:59.251Z,17.97
2023-03-19T05:09:01.202Z,18.93
2023-03-19T05:10:03.066Z,16.17
2023-03-19T05:11:04.765Z,14.97
2023-03-19T05:12:06.895Z,16.57
2023-03-19T05:13:08.492Z,17.53
2023-03-19T05:14:10.084Z,16.97
2023-03-19T05:15:12.061Z,19.87
2023-03-19T05:16:13.990Z,17.63
2023-03-19T05:17:15.778Z,15.40
2023-03-19T05:18:17.313Z,14.40
2023-03-19T05:19:18.973Z,16.80
2023-03-19T05:20:20.619Z,17.17
2023-03-19T05:21:22.256Z,15.23
2023-03-19T05:22:24.127Z,11.77
2023-03-19T05:23:25.800Z,12.27
2023-03-19T05:24:27.532Z,11.87
2023-03-19T05:25:30.179Z,12.10
2023-03-19T05:26:32.363Z,13.03
2023-03-19T05:27:34.050Z,12.40
2023-03-19T05:28:35.659Z,13.47
2023-03-19T05:29:39.805Z,11.70
2023-03-19T05:30:43.248Z,12.90
2023-03-19T05:31:44.799Z,17.13
2023-03-19T05:32:46.844Z,16.43
2023-03-19T05:33:48.530Z,15.47
2023-03-19T05:34:50.174Z,16.73
2023-03-19T05:35:52.060Z,14.57
2023-03-19T05:36:53.557Z,16.53
2023-03-19T05:37:55.838Z,15.50
2023-03-19T05:38:57.380Z,13.63
2023-03-19T05:39:58.967Z,14.50
2023-03-19T05:41:07.041Z,15.70
2023-03-19T05:42:08.742Z,16.37
2023-03-19T05:43:11.706Z,13.40
2023-03-19T05:44:13.335Z,12.10
2023-03-19T05:45:15.090Z,12.60
2023-03-19T05:46:16.736Z,15.17
2023-03-19T05:47:18.341Z,11.73
2023-03-19T05:48:20.325Z,13.40
2023-03-19T05:49:22.224Z,10.73
2023-03-19T05:50:23.830Z,11.70
2023-03-19T05:51:25.663Z,13.73
2023-03-19T05:52:27.486Z,12.93
2023-03-19T05:53:29.751Z,14.00
2023-03-19T05:54:31.327Z,12.83
2023-03-19T05:55:32.974Z,13.77
2023-03-19T05:56:34.616Z,15.70
2023-03-19T05:57:36.306Z,17.27
2023-03-19T05:58:37.914Z,15.60
2023-03-19T05:59:39.437Z,16.40
2023-03-19T06:00:41.596Z,17.33
2023-03-19T06:01:43.159Z,16.50
2023-03-19T06:02:44.814Z,17.00
2023-03-19T06:03:46.470Z,14.10
2023-03-19T06:04:48.106Z,16.43
2023-03-19T06:05:50.878Z,15.03
2023-03-19T06:06:52.430Z,15.73
2023-03-19T06:07:53.981Z,14.93
2023-03-19T06:08:55.631Z,13.63
2023-03-19T06:09:57.257Z,14.10
2023-03-19T06:10:58.847Z,16.13
2023-03-19T06:12:00.392Z,16.47
2023-03-19T06:13:01.904Z,14.30
2023-03-19T06:14:03.581Z,15.53
2023-03-19T06:15:05.479Z,27.13
2023-03-19T06:16:07.426Z,14.97
2023-03-19T06:17:09.827Z,13.80
2023-03-19T06:18:11.402Z,12.50
2023-03-19T06:19:12.973Z,12.10
2023-03-19T06:20:14.591Z,14.50
2023-03-19T06:21:16.549Z,17.97
2023-03-19T06:22:18.122Z,14.30
2023-03-19T06:23:19.771Z,13.03
2023-03-19T06:24:21.341Z,14.63
2023-03-19T06:25:22.909Z,13.83
2023-03-19T06:26:27.582Z,13.93
2023-03-19T06:27:29.298Z,14.73
2023-03-19T06:28:30.843Z,13.53
2023-03-19T06:29:32.445Z,13.57
2023-03-19T06:30:34.714Z,15.60
2023-03-19T06:31:39.448Z,16.77
2023-03-19T06:32:41.818Z,12.90
2023-03-19T06:33:43.673Z,14.83
2023-03-19T06:34:45.334Z,14.43
2023-03-19T06:35:47.097Z,14.83
2023-03-19T06:36:48.769Z,16.83
2023-03-19T06:37:50.879Z,15.70
2023-03-19T06:38:52.510Z,14.33
2023-03-19T06:39:54.882Z,15.10
2023-03-19T06:40:56.493Z,12.23
2023-03-19T06:41:58.087Z,14.83
2023-03-19T06:42:59.677Z,13.27
2023-03-19T06:44:01.411Z,11.47
2023-03-19T06:45:03.632Z,12.23
2023-03-19T06:46:08.265Z,13.33
2023-03-19T06:47:11.266Z,16.40
2023-03-19T06:48:12.826Z,12.27
2023-03-19T06:49:14.388Z,15.47
2023-03-19T06:50:19.319Z,14.63
2023-03-19T06:51:21.245Z,15.17
2023-03-19T06:52:22.767Z,12.97
2023-03-19T06:53:24.364Z,16.63
2023-03-19T06:54:25.938Z,15.80
2023-03-19T06:55:27.470Z,11.60
2023-03-19T06:56:29.514Z,13.17
2023-03-19T06:57:31.057Z,10.87
2023-03-19T06:58:32.608Z,12.90
2023-03-19T06:59:34.169Z,11.37
2023-03-19T07:00:36.031Z,14.47
2023-03-19T07:01:37.960Z,11.23
2023-03-19T07:02:40.349Z,10.90
2023-03-19T07:03:41.958Z,11.23
2023-03-19T07:04:43.541Z,10.00
2023-03-19T07:05:45.138Z,11.63
2023-03-19T07:06:46.766Z,11.83
2023-03-19T07:07:48.367Z,12.00
2023-03-19T07:08:49.849Z,13.77
2023-03-19T07:09:52.172Z,11.40
2023-03-19T07:10:53.785Z,11.23
2023-03-19T07:11:55.284Z,9.77
2023-03-19T07:12:56.863Z,9.30
2023-03-19T07:13:58.451Z,12.53
2023-03-19T07:15:00.291Z,10.63
2023-03-19T07:16:02.850Z,9.67
2023-03-19T07:17:04.545Z,10.23
2023-03-19T07:18:06.302Z,11.03
2023-03-19T07:19:07.900Z,9.50
2023-03-19T07:20:10.313Z,11.00
2023-03-19T07:21:12.004Z,9.13
2023-03-19T07:22:13.640Z,11.70
2023-03-19T07:23:15.444Z,9.90
2023-03-19T07:24:17.080Z,9.53
2023-03-19T07:25:18.620Z,9.87
2023-03-19T07:26:20.394Z,11.37
2023-03-19T07:27:22.107Z,10.47
2023-03-19T07:28:23.685Z,10.17
2023-03-19T07:29:25.642Z,9.90
2023-03-19T07:30:27.291Z,9.87
2023-03-19T07:31:28.888Z,9.23
2023-03-19T07:32:30.656Z,7.97
2023-03-19T07:33:32.193Z,8.47
2023-03-19T07:34:33.774Z,9.23
2023-03-19T07:35:35.722Z,7.77
2023-03-19T07:36:37.301Z,8.53
2023-03-19T07:37:38.824Z,10.93
2023-03-19T07:38:43.455Z,9.77
2023-03-19T07:39:44.980Z,9.63
2023-03-19T07:41:00.894Z,9.50
2023-03-19T07:42:03.516Z,10.77
2023-03-19T07:43:05.327Z,8.50
2023-03-19T07:44:07.118Z,10.40
2023-03-19T07:45:09.269Z,10.20
2023-03-19T07:46:11.731Z,10.10
2023-03-19T07:47:27.921Z,10.00
2023-03-19T07:48:29.967Z,9.73
2023-03-19T07:49:31.671Z,9.60
2023-03-19T07:50:33.416Z,10.07
2023-03-19T07:51:35.387Z,9.90
2023-03-19T07:52:37.054Z,12.57
2023-03-19T07:53:38.615Z,8.37
2023-03-19T07:54:40.827Z,11.50
2023-03-19T07:55:42.468Z,9.00
2023-03-19T07:56:44.097Z,10.67
2023-03-19T07:57:45.662Z,11.00
2023-03-19T07:58:47.319Z,7.27
2023-03-19T07:59:49.200Z,9.30
2023-03-19T08:00:50.935Z,7.47
2023-03-19T08:01:52.520Z,8.73
2023-03-19T08:02:54.177Z,9.67
2023-03-19T08:03:55.738Z,10.77
2023-03-19T08:04:58.626Z,11.77
2023-03-19T08:06:00.248Z,11.07
2023-03-19T08:07:01.794Z,10.20
2023-03-19T08:08:03.516Z,9.70
2023-03-19T08:09:05.097Z,9.33
2023-03-19T08:10:08.132Z,10.23
2023-03-19T08:11:10.511Z,8.63
2023-03-19T08:12:12.240Z,12.50
2023-03-19T08:13:14.267Z,7.77
2023-03-19T08:14:19.306Z,7.00
2023-03-19T08:15:21.866Z,8.30
2023-03-19T08:16:23.698Z,8.87
2023-03-19T08:17:25.295Z,6.63
2023-03-19T08:18:27.307Z,13.57
2023-03-19T08:19:28.919Z,10.80
2023-03-19T08:20:31.909Z,10.30
2023-03-19T08:21:35.318Z,10.90
2023-03-19T08:22:38.580Z,8.17
2023-03-19T08:23:40.739Z,9.93
2023-03-19T08:24:42.306Z,13.23
2023-03-19T08:25:43.977Z,10.03
2023-03-19T08:26:45.588Z,8.43
2023-03-19T08:27:47.415Z,8.87
2023-03-19T08:28:49.063Z,7.77
2023-03-19T08:29:50.722Z,9.20
2023-03-19T08:30:52.355Z,10.57
2023-03-19T08:31:54.941Z,10.60
2023-03-19T08:32:57.477Z,10.23
2023-03-19T08:34:02.810Z,13.00
2023-03-19T08:35:06.118Z,10.30
2023-03-19T08:36:13.227Z,11.43
2023-03-19T08:37:15.074Z,11.83
2023-03-19T08:38:16.846Z,13.50
2023-03-19T08:39:19.233Z,14.30
2023-03-19T08:40:20.977Z,13.27
2023-03-19T08:41:23.429Z,13.23
2023-03-19T08:42:25.145Z,12.70
2023-03-19T08:43:26.732Z,13.50
2023-03-19T08:44:28.548Z,14.00
2023-03-19T08:45:30.191Z,11.10
2023-03-19T08:46:32.037Z,12.30
2023-03-19T08:47:33.700Z,12.30
2023-03-19T08:48:35.329Z,11.70
2023-03-19T08:49:37.035Z,9.33
2023-03-19T08:50:38.625Z,12.63
2023-03-19T08:51:40.571Z,13.13
2023-03-19T08:52:42.750Z,14.13
2023-03-19T08:53:44.328Z,12.03
2023-03-19T08:54:46.081Z,10.97
2023-03-19T08:55:55.172Z,8.63
2023-03-19T08:56:57.114Z,11.17
2023-03-19T08:57:58.714Z,10.80
2023-03-19T08:59:00.242Z,11.50
2023-03-19T09:00:05.680Z,10.33
2023-03-19T09:01:10.728Z,7.87
2023-03-19T09:02:12.524Z,9.60
2023-03-19T09:03:14.095Z,11.97
2023-03-19T09:04:16.114Z,11.60
2023-03-19T09:05:23.333Z,7.27
2023-03-19T09:06:25.175Z,13.20
2023-03-19T09:07:26.870Z,7.47
2023-03-19T09:08:29.368Z,9.67
2023-03-19T09:11:47.229Z,6.00
2023-03-19T09:12:48.769Z,8.33
2023-03-19T09:13:50.546Z,8.20
2023-03-19T09:14:52.148Z,8.57
2023-03-19T09:15:54.076Z,13.07
2023-03-19T09:16:55.849Z,11.50
2023-03-19T09:17:57.447Z,9.20
2023-03-19T09:18:59.557Z,10.90
2023-03-19T09:20:01.148Z,8.27
2023-03-19T09:21:03.554Z,11.93
2023-03-19T09:22:06.102Z,8.57
2023-03-19T09:23:08.228Z,10.27
2023-03-19T09:24:09.942Z,9.17
2023-03-19T09:25:11.942Z,9.10
2023-03-19T09:26:13.512Z,9.73
2023-03-19T09:27:15.677Z,10.97
2023-03-19T09:28:17.582Z,12.43
2023-03-19T09:29:19.319Z,11.30
2023-03-19T09:30:21.833Z,10.07
2023-03-19T09:31:23.930Z,7.60
2023-03-19T09:32:25.848Z,7.53
2023-03-19T09:33:27.417Z,9.93
2023-03-19T09:34:29.003Z,9.13
2023-03-19T09:35:31.517Z,7.77
2023-03-19T09:36:33.534Z,10.63
2023-03-19T09:37:35.606Z,12.80
2023-03-19T09:38:37.230Z,9.93
2023-03-19T09:39:38.969Z,12.33
2023-03-19T09:40:46.968Z,9.20
2023-03-19T09:42:06.915Z,16.90
2023-03-19T09:43:19.896Z,9.03
2023-03-19T09:44:39.910Z,8.63
2023-03-19T09:45:41.576Z,10.07
2023-03-19T09:46:52.741Z,7.07
2023-03-19T09:48:01.657Z,8.53
2023-03-19T09:49:11.549Z,7.50
2023-03-19T09:50:14.439Z,7.50
2023-03-19T09:51:26.201Z,6.03
2023-03-19T09:52:30.466Z,10.50
2023-03-19T09:53:47.263Z,5.37
2023-03-19T09:54:55.855Z,9.20
2023-03-19T09:56:00.211Z,6.33
2023-03-19T09:57:02.019Z,9.40
2023-03-19T09:58:13.720Z,4.93
2023-03-19T09:59:15.372Z,5.23
2023-03-19T10:00:27.601Z,5.57
2023-03-19T10:01:35.415Z,5.57
2023-03-19T10:02:42.754Z,4.60
2023-03-19T10:04:06.789Z,5.30
2023-03-19T10:05:23.722Z,6.13
2023-03-19T10:06:29.619Z,7.03
2023-03-19T10:07:57.935Z,4.90
2023-03-19T10:09:21.463Z,6.80
2023-03-19T10:10:56.206Z,5.40
2023-03-19T10:12:03.775Z,4.80
2023-03-19T10:13:27.269Z,4.17
2023-03-19T10:15:02.988Z,6.40
2023-03-19T10:16:06.422Z,4.37
2023-03-19T10:17:14.960Z,6.13
2023-03-19T10:18:19.811Z,7.70
2023-03-19T10:19:50.329Z,4.77
2023-03-19T10:21:01.203Z,4.00
2023-03-19T10:22:12.384Z,2.50
2023-03-19T10:23:46.883Z,4.93
2023-03-19T10:24:50.459Z,3.30
2023-03-19T10:25:55.850Z,3.20
2023-03-19T10:27:19.871Z,4.80
2023-03-19T10:28:22.444Z,3.00
2023-03-19T10:29:24.893Z,4.83
2023-03-19T10:30:26.679Z,4.30
2023-03-19T10:31:43.317Z,5.27
2023-03-19T10:32:53.956Z,4.33
2023-03-19T10:34:04.194Z,5.57
2023-03-19T10:35:16.879Z,4.50
2023-03-19T10:36:21.620Z,5.23
2023-03-19T10:37:27.025Z,3.23
2023-03-19T10:38:28.826Z,2.63
2023-03-19T10:39:35.949Z,3.10
2023-03-19T10:40:49.114Z,2.80
2023-03-19T10:42:00.908Z,4.07
2023-03-19T10:43:21.031Z,2.20
2023-03-19T10:44:33.249Z,3.37
2023-03-19T10:45:38.795Z,3.33
2023-03-19T10:46:41.303Z,2.97
2023-03-19T10:47:43.771Z,3.70
2023-03-19T10:48:46.819Z,3.87
2023-03-19T10:49:50.591Z,4.10
2023-03-19T10:51:06.118Z,5.50
2023-03-19T10:52:20.691Z,5.40
2023-03-19T10:53:37.989Z,3.97
2023-03-19T10:54:43.638Z,5.43
2023-03-19T10:55:53.804Z,7.73
2023-03-19T10:56:57.452Z,4.47
2023-03-19T10:58:17.375Z,6.70
2023-03-19T10:59:39.451Z,4.27
2023-03-19T11:00:41.204Z,5.93
2023-03-19T11:01:43.244Z,4.00
2023-03-19T11:02:51.541Z,5.70
2023-03-19T11:03:58.241Z,3.27
2023-03-19T11:05:09.212Z,4.77
2023-03-19T11:06:20.288Z,4.00
2023-03-19T11:07:24.848Z,4.03
2023-03-19T11:08:35.567Z,4.40
2023-03-19T11:09:40.304Z,5.43
2023-03-19T11:10:47.102Z,3.23
2023-03-19T11:11:52.074Z,5.07
2023-03-19T11:13:16.056Z,4.40
2023-03-19T11:14:39.195Z,5.83
2023-03-19T11:15:41.236Z,3.90
2023-03-19T11:16:55.018Z,3.40
2023-03-19T11:18:06.167Z,2.87
2023-03-19T11:19:20.309Z,5.70
2023-03-19T11:20:28.120Z,3.37
2023-03-19T11:21:32.959Z,3.90
2023-03-19T11:22:39.376Z,3.60
2023-03-19T11:23:42.788Z,2.17
2023-03-19T11:24:56.381Z,5.83
2023-03-19T11:26:04.450Z,4.47
2023-03-19T11:27:08.149Z,3.23
2023-03-19T11:28:12.969Z,6.13
2023-03-19T11:29:14.563Z,3.30
2023-03-19T11:30:19.810Z,4.20
2023-03-19T11:31:34.052Z,3.27
2023-03-19T11:32:53.650Z,4.50
2023-03-19T11:34:26.306Z,3.57
2023-03-19T11:36:08.868Z,6.00
2023-03-19T11:37:29.311Z,6.63
2023-03-19T11:38:53.066Z,4.33
2023-03-19T11:40:16.130Z,5.33
2023-03-19T11:41:23.900Z,5.17
2023-03-19T11:42:53.993Z,6.50
2023-03-19T11:44:16.454Z,4.97
2023-03-19T11:45:40.784Z,3.10
2023-03-19T11:47:17.840Z,2.60
2023-03-19T11:48:44.401Z,5.10
2023-03-19T11:50:18.005Z,4.43
2023-03-19T11:51:28.799Z,4.40
2023-03-19T11:52:41.769Z,4.83
2023-03-19T11:54:09.738Z,5.07
2023-03-19T11:55:39.337Z,4.30
2023-03-19T11:56:44.875Z,5.17
2023-03-19T11:58:01.662Z,2.83
2023-03-19T11:59:27.349Z,3.60
2023-03-19T12:00:48.956Z,2.40
2023-03-19T12:02:06.537Z,2.70
2023-03-19T12:03:39.135Z,3.93
2023-03-19T12:04:50.981Z,3.43
2023-03-19T12:06:00.026Z,4.63
2023-03-19T12:07:24.764Z,5.07
2023-03-19T12:08:26.581Z,5.00
2023-03-19T12:09:38.216Z,3.60
2023-03-19T12:10:42.780Z,4.87
2023-03-19T12:11:54.736Z,3.57
2023-03-19T12:13:17.971Z,6.03
2023-03-19T12:14:25.602Z,3.67
2023-03-19T12:15:53.845Z,3.73
2023-03-19T12:17:04.950Z,3.27
2023-03-19T12:18:20.342Z,2.80
2023-03-19T12:19:47.829Z,4.23
2023-03-19T12:21:07.964Z,5.73
2023-03-19T12:22:21.839Z,3.90
2023-03-19T12:23:29.874Z,2.10
2023-03-19T12:24:59.753Z,2.23
2023-03-19T12:26:34.931Z,2.23
2023-03-19T12:27:42.845Z,5.23
2023-03-19T12:29:23.606Z,2.80
2023-03-19T12:30:57.439Z,4.80
2023-03-19T12:32:17.532Z,2.13
2023-03-19T12:33:24.862Z,3.63
2023-03-19T12:34:34.264Z,3.40
2023-03-19T12:35:41.996Z,2.63
2023-03-19T12:36:54.969Z,2.50
2023-03-19T12:38:00.004Z,2.93
2023-03-19T12:39:11.442Z,1.83
2023-03-19T12:40:41.966Z,2.43
2023-03-19T12:41:47.360Z,3.57
2023-03-19T12:42:48.890Z,2.93
2023-03-19T12:44:14.985Z,1.83
2023-03-19T12:45:28.518Z,1.80
2023-03-19T12:46:44.243Z,3.60
2023-03-19T12:47:47.835Z,3.40
2023-03-19T12:48:54.959Z,4.20
2023-03-19T12:50:04.666Z,2.10
2023-03-19T12:51:11.754Z,1.83
2023-03-19T12:52:33.990Z,8.07
2023-03-19T12:53:56.584Z,86.70
2023-03-19T12:55:01.406Z,32.77
2023-03-19T12:56:17.502Z,121.80
2023-03-19T12:57:32.611Z,129.83
2023-03-19T12:58:46.885Z,164.83
2023-03-19T12:59:58.926Z,9.77
2023-03-19T13:01:14.747Z,29.97
2023-03-19T13:02:25.258Z,31.60
2023-03-19T13:03:44.648Z,98.93
2023-03-19T13:05:25.282Z,15.07
2023-03-19T13:06:29.583Z,12.53
2023-03-19T13:07:51.941Z,9.20
2023-03-19T13:09:11.736Z,3.70
2023-03-19T13:10:19.175Z,3.13
2023-03-19T13:11:26.685Z,2.90
2023-03-19T13:12:32.061Z,2.87
2023-03-19T13:13:53.819Z,5.37
2023-03-19T13:14:59.870Z,2.03
2023-03-19T13:16:29.510Z,3.60
2023-03-19T13:17:42.666Z,2.27
2023-03-19T13:18:50.269Z,1.77
2023-03-19T13:19:54.416Z,1.93
2023-03-19T13:21:18.680Z,1.77
2023-03-19T13:22:27.605Z,1.63
2023-03-19T13:23:34.144Z,2.17
2023-03-19T13:24:41.632Z,1.30
2023-03-19T13:25:48.039Z,3.40
2023-03-19T13:26:50.459Z,2.57
2023-03-19T13:27:54.306Z,2.53
2023-03-19T13:29:07.840Z,2.30
2023-03-19T13:30:09.495Z,3.90
2023-03-19T13:31:23.922Z,3.03
2023-03-19T13:32:34.457Z,2.10
2023-03-19T13:33:38.806Z,2.60
2023-03-19T13:34:40.706Z,2.73
2023-03-19T13:35:56.019Z,2.07
2023-03-19T13:37:14.969Z,1.97
2023-03-19T13:38:25.749Z,1.73
2023-03-19T13:39:33.472Z,1.90
2023-03-19T13:40:50.771Z,5.63
2023-03-19T13:42:04.691Z,1.30
2023-03-19T13:43:28.571Z,1.20
2023-03-19T13:44:51.061Z,2.30
2023-03-19T13:45:54.794Z,1.97
2023-03-19T13:46:56.511Z,2.63
2023-03-19T13:48:24.608Z,1.57
2023-03-19T13:49:28.038Z,0.90
2023-03-19T13:50:30.803Z,1.00
2023-03-19T13:51:33.067Z,1.10
2023-03-19T13:52:50.155Z,1.80
2023-03-19T13:54:01.262Z,1.50
2023-03-19T13:55:24.384Z,0.80
2023-03-19T13:56:30.596Z,1.63
2023-03-19T13:57:35.969Z,0.90
2023-03-19T13:58:52.884Z,1.50
2023-03-19T13:59:54.517Z,0.97
2023-03-19T14:00:59.703Z,1.33
2023-03-19T14:02:20.800Z,2.60
2023-03-19T14:03:25.436Z,1.37
2023-03-19T14:04:32.817Z,1.97
2023-03-19T14:05:37.712Z,1.10
2023-03-19T14:06:49.119Z,1.37
2023-03-19T14:07:54.176Z,2.47
2023-03-19T14:08:56.080Z,1.30
2023-03-19T14:09:57.753Z,2.03
2023-03-19T14:11:01.298Z,1.67
2023-03-19T14:12:40.278Z,5.43
2023-03-19T14:13:47.748Z,1.73
2023-03-19T14:14:55.428Z,1.53
2023-03-19T14:16:21.689Z,1.40
2023-03-19T14:17:35.643Z,1.50
2023-03-19T14:18:41.421Z,1.00
2023-03-19T14:19:43.587Z,1.70
2023-03-19T14:20:57.263Z,1.43